Portada
METAR-TAF:

METAR-TAF

Aeropuertos :

Aeropuerto de Copenhague-Kastrup

Copenhague, Dinamarca

latitud: 55-37N, longitud: 012-39E, altitud: 5 m

Observación

El informe se hizo hace 15 minutos, a las 07:50 UTC
Viento 6 kt del sur-sureste
Temperatura 21°C
Humedad 78%
Presión 1016 hPa
Visibilidad 10 km o más

METAR: EKCH 240750Z AUTO 16006KT 9999 NCD 21/17 Q1016 nosig

Hora: 10:05 (08:05 UTC)

Pronóstico

El informe se hizo hace 3 horas y 3 minutos, a las 05:02 UTC
Pronóstico válido del 24 a las 06 UTC al 25 a las 06 UTC
Viento 5 kt del norte
Visibilidad 10 km o más
Escasas nubes a una altura de 3000 ft
Evolucionando progresivamente
del 24 a las 09 UTC al 24 a las 11 UTC
Viento 10 kt del sur
Evolucionando progresivamente
del 24 a las 16 UTC al 24 a las 18 UTC
Viento 12 kt del este-sureste

TAF: EKCH 240502Z 2406/2506 01005KT 9999 FEW030 BECMG 2409/2411 17010KT BECMG 2416/2418 11012KT

Observaciones y pronósticos meteorológicos de más de 4000 aeropuertos (mensajes METAR y TAF).

Los puntos amarillos y rojos representan las estaciones disponibles.

Ponga el ratón en el punto deseado para ver el nombre de la estación.

Haga clic para ver las observaciones y los pronósticos meteorológicos.

Para cambiar el mapa : haga clic en los botones verdes con una cruz de color negro para hacer un zoom, en el botón verde con un guión para alejar o en las flechas verdes para mapas adyacentes.


METAR-TAF: